Time;durP1;ratioP1;P1;durP2;ratioP2;P2;SDS_P1;SDS_P2;PMS_P1;PMS_P2;Temp;Humidity;BMP_temperature;BMP_pressure;BME280_temperature;BME280_humidity;BME280_pressure;Samples;Min_cycle;Max_cycle;Signal;HPM_P1;HPM_P2
2022/01/11 00:00:07;;;;;;;;;4.75;3.75;;;;;3.13;81.11;102094.44;5012566;28;45306;-78
2022/01/11 00:02:34;;;;;;;;;14.75;7.75;;;;;3.08;80.61;102096.84;5012476;28;45413;-79
2022/01/11 00:05:00;;;;;;;;;13.25;9.00;;;;;3.07;81.24;102088.97;4995182;28;46453;-79
2022/01/11 00:07:29;;;;;;;;;12.50;9.75;;;;;3.08;81.54;102090.75;5021594;27;45545;-77
2022/01/11 00:09:56;;;;;;;;;10.50;8.00;;;;;3.11;81.47;102094.38;5035500;27;45368;-77
2022/01/11 00:12:21;;;;;;;;;9.75;7.00;;;;;3.08;80.79;102086.41;5004594;27;45348;-78
2022/01/11 00:14:47;;;;;;;;;10.00;9.00;;;;;3.10;81.28;102091.69;5012087;28;46037;-78
2022/01/11 00:17:12;;;;;;;;;10.50;9.25;;;;;3.10;80.87;102089.06;5011903;28;45342;-78
2022/01/11 00:19:37;;;;;;;;;12.75;10.25;;;;;3.07;81.14;102094.19;4993044;28;45779;-76
2022/01/11 00:22:06;;;;;;;;;18.25;17.00;;;;;3.07;81.13;102099.41;5011132;28;45495;-76
2022/01/11 00:24:33;;;;;;;;;18.50;15.25;;;;;3.07;81.21;102104.63;5012507;28;46282;-78
2022/01/11 00:27:08;;;;;;;;;21.00;14.50;;;;;3.10;80.86;102104.75;5014894;27;45474;-77
2022/01/11 00:29:36;;;;;;;;;34.00;25.50;;;;;3.07;80.64;102099.41;4997779;28;45360;-77
2022/01/11 00:32:09;;;;;;;;;24.25;18.75;;;;;3.06;81.05;102105.50;5016079;28;45491;-78
2022/01/11 00:34:49;;;;;;;;;33.50;26.00;;;;;3.02;81.15;102096.66;5019023;28;45469;-77
2022/01/11 00:37:16;;;;;;;;;40.75;30.00;;;;;3.01;80.81;102101.00;5027040;28;45713;-77
2022/01/11 00:39:42;;;;;;;;;42.00;33.50;;;;;2.99;81.59;102102.69;5025623;28;45353;-78
2022/01/11 00:42:13;;;;;;;;;24.25;21.75;;;;;2.97;81.58;102101.72;5017359;28;45558;-78
2022/01/11 00:44:40;;;;;;;;;29.25;24.00;;;;;2.92;82.13;102090.22;5014447;28;45407;-78
2022/01/11 00:47:06;;;;;;;;;23.25;17.50;;;;;2.91;81.77;102101.50;5014808;27;45382;-77
2022/01/11 00:49:33;;;;;;;;;14.50;13.00;;;;;2.93;80.96;102099.84;5015062;28;45364;-78
2022/01/11 00:51:59;;;;;;;;;13.50;11.00;;;;;2.92;81.62;102105.91;5013012;28;45363;-77
2022/01/11 00:54:24;;;;;;;;;19.75;13.50;;;;;2.89;81.62;102108.41;5013877;28;45390;-77
2022/01/11 00:56:49;;;;;;;;;13.50;12.25;;;;;2.91;81.30;102109.34;4995506;28;45389;-77
2022/01/11 00:59:15;;;;;;;;;9.00;9.00;;;;;2.84;82.17;102095.19;5014390;28;45378;-79
2022/01/11 01:01:41;;;;;;;;;13.50;9.50;;;;;2.88;81.81;102098.78;4997275;28;45377;-77
2022/01/11 01:04:08;;;;;;;;;12.75;11.50;;;;;2.90;81.58;102097.13;5019697;28;45634;-80
2022/01/11 01:06:35;;;;;;;;;20.00;11.00;;;;;2.95;81.86;102100.78;5014597;28;45571;-78
2022/01/11 01:09:00;;;;;;;;;12.00;9.00;;;;;2.95;81.34;102105.13;5013105;28;45487;-78
2022/01/11 01:11:26;;;;;;;;;11.75;8.50;;;;;2.95;81.94;102106.00;5042408;27;45420;-78
2022/01/11 01:13:52;;;;;;;;;13.50;10.00;;;;;2.93;81.78;102104.16;5013582;28;45400;-77
2022/01/11 01:16:17;;;;;;;;;11.75;8.50;;;;;2.93;81.39;102118.13;5013930;28;45428;-77
2022/01/11 01:18:43;;;;;;;;;8.00;6.00;;;;;2.90;81.01;102118.03;5013614;28;45384;-78
2022/01/11 01:21:08;;;;;;;;;9.50;7.50;;;;;2.92;81.35;102129.41;5012650;28;45555;-78
2022/01/11 01:23:34;;;;;;;;;9.75;8.50;;;;;2.89;81.33;102121.47;4995075;28;46946;-77
2022/01/11 01:26:01;;;;;;;;;15.75;10.50;;;;;2.91;81.78;102125.00;5013062;28;45357;-77
2022/01/11 01:28:26;;;;;;;;;18.25;11.00;;;;;2.92;81.27;102123.31;5013782;28;45484;-79
2022/01/11 01:30:53;;;;;;;;;13.00;13.00;;;;;2.92;81.97;102125.91;5013874;28;45476;-77
2022/01/11 01:33:20;;;;;;;;;14.50;13.00;;;;;2.93;81.87;102117.22;4999577;28;45401;-78
2022/01/11 01:35:51;;;;;;;;;9.50;9.50;;;;;2.92;81.65;102111.13;5015211;28;45491;-77
2022/01/11 01:38:22;;;;;;;;;15.25;10.00;;;;;2.92;81.74;102118.94;5014691;28;45370;-77
2022/01/11 01:40:49;;;;;;;;;15.75;9.50;;;;;2.93;81.86;102125.97;5014462;28;45595;-77
2022/01/11 01:43:14;;;;;;;;;8.75;8.75;;;;;2.94;82.22;102130.34;5013907;28;45516;-77
2022/01/11 01:45:44;;;;;;;;;15.00;11.50;;;;;2.94;82.32;102125.09;5013515;28;45424;-77
2022/01/11 01:48:10;;;;;;;;;12.50;11.00;;;;;2.93;81.58;102132.91;5013019;28;45399;-78
2022/01/11 01:50:35;;;;;;;;;14.75;14.75;;;;;2.97;81.81;102129.56;5012995;28;45525;-77
2022/01/11 01:53:04;;;;;;;;;11.50;9.00;;;;;2.93;81.67;102125.97;5012911;28;45578;-77
2022/01/11 01:55:29;;;;;;;;;21.00;14.50;;;;;2.92;82.18;102134.63;5013121;28;45360;-77
2022/01/11 01:57:55;;;;;;;;;14.75;11.00;;;;;2.93;82.16;102128.59;5012741;28;45283;-77
2022/01/11 02:00:22;;;;;;;;;13.50;8.50;;;;;2.96;82.21;102140.84;5014284;28;45523;-77
2022/01/11 02:02:49;;;;;;;;;17.50;14.75;;;;;2.98;82.37;102141.81;5013704;28;46066;-78
2022/01/11 02:05:14;;;;;;;;;17.75;13.75;;;;;2.98;81.65;102141.81;5016480;28;45428;-78
2022/01/11 02:07:40;;;;;;;;;18.50;18.50;;;;;2.95;81.56;102139.97;5014896;28;45373;-77
2022/01/11 02:10:07;;;;;;;;;21.75;14.25;;;;;2.94;81.99;102156.47;5015768;28;45458;-77
2022/01/11 02:12:35;;;;;;;;;11.75;9.25;;;;;2.92;82.18;102152.91;5014872;27;46391;-78
2022/01/11 02:15:01;;;;;;;;;19.50;11.50;;;;;2.93;81.91;102154.69;5025593;28;45798;-77
2022/01/11 02:17:28;;;;;;;;;27.75;18.25;;;;;2.89;81.76;102158.03;5030548;28;45386;-75
2022/01/11 02:19:55;;;;;;;;;15.75;14.00;;;;;2.83;81.47;102157.81;5012842;28;45317;-75
2022/01/11 02:22:21;;;;;;;;;18.75;13.25;;;;;2.83;81.70;102160.41;4995742;28;45437;-75
2022/01/11 02:24:46;;;;;;;;;16.50;11.75;;;;;2.78;81.49;102143.66;5013322;28;45399;-75
2022/01/11 02:27:12;;;;;;;;;30.75;18.75;;;;;2.77;81.39;102158.47;5012275;28;45573;-73
2022/01/11 02:29:38;;;;;;;;;9.25;9.00;;;;;2.75;82.01;102154.00;5012028;28;45582;-75
2022/01/11 02:32:04;;;;;;;;;9.00;9.00;;;;;2.66;81.23;102145.00;5011641;28;45375;-76
2022/01/11 02:34:30;;;;;;;;;12.50;11.75;;;;;2.73;81.30;102158.28;5012219;28;45328;-75
2022/01/11 02:36:55;;;;;;;;;16.50;16.00;;;;;2.70;81.02;102150.34;5014166;28;45383;-75
2022/01/11 02:39:21;;;;;;;;;17.25;14.75;;;;;2.70;80.97;102156.44;5012691;28;45315;-74
2022/01/11 02:41:56;;;;;;;;;18.00;16.00;;;;;2.71;81.45;102163.44;5011520;28;45448;-75
2022/01/11 02:44:22;;;;;;;;;18.75;13.50;;;;;2.56;81.70;102132.44;5012336;28;45449;-75
2022/01/11 02:46:47;;;;;;;;;11.00;11.00;;;;;2.66;81.62;102155.44;5012087;28;45607;-75
2022/01/11 02:49:12;;;;;;;;;13.50;10.50;;;;;2.67;81.18;102162.47;5012047;27;45523;-75
2022/01/11 02:51:38;;;;;;;;;16.50;11.75;;;;;2.68;81.28;102168.56;5012097;27;46159;-75
2022/01/11 02:54:05;;;;;;;;;14.25;9.50;;;;;2.61;81.22;102151.78;4994870;28;45453;-74
2022/01/11 02:56:31;;;;;;;;;23.25;21.00;;;;;2.63;81.56;102154.47;5011513;28;45386;-75
2022/01/11 02:58:57;;;;;;;;;11.00;11.00;;;;;2.57;81.16;102155.09;5012386;28;45599;-75
2022/01/11 03:01:22;;;;;;;;;16.50;15.50;;;;;2.59;81.00;102157.78;5011802;28;45601;-75
2022/01/11 03:03:48;;;;;;;;;17.50;15.00;;;;;2.47;81.16;102151.22;5011992;27;45515;-75
2022/01/11 03:06:13;;;;;;;;;15.00;11.25;;;;;2.44;81.78;102152.84;4995383;28;45521;-74
2022/01/11 03:08:42;;;;;;;;;13.50;11.00;;;;;2.52;81.23;102174.03;5012415;28;45521;-74
2022/01/11 03:11:09;;;;;;;;;14.00;8.75;;;;;2.52;81.99;102174.03;5062159;27;45422;-75
2022/01/11 03:13:35;;;;;;;;;14.00;14.00;;;;;2.53;81.96;102176.69;5131956;27;45454;-75
2022/01/11 03:16:03;;;;;;;;;15.00;12.00;;;;;2.48;81.33;102168.69;5116429;27;45387;-74
2022/01/11 03:18:28;;;;;;;;;47.00;46.33;;;;;2.47;81.29;102179.94;5035066;27;45555;-75
2022/01/11 03:20:53;;;;;;;;;53.25;46.50;;;;;2.44;81.48;102166.78;5011111;28;46160;-74
2022/01/11 03:23:20;;;;;;;;;8.00;4.00;;;;;2.44;80.92;102178.94;5012629;28;45503;-74
2022/01/11 03:25:48;;;;;;;;;11.25;9.00;;;;;2.43;81.69;102171.94;5011546;27;45583;-73
2022/01/11 03:28:13;;;;;;;;;9.00;8.00;;;;;2.42;81.72;102180.63;5011824;28;45545;-75
2022/01/11 03:30:40;;;;;;;;;29.25;25.25;;;;;2.36;82.05;102172.56;5011567;28;45494;-75
2022/01/11 03:33:08;;;;;;;;;8.50;4.50;;;;;2.40;81.47;102187.47;4994610;28;45378;-75
2022/01/11 03:35:34;;;;;;;;;7.00;6.50;;;;;2.38;82.31;102194.38;5012367;28;45538;-75
2022/01/11 03:37:59;;;;;;;;;9.25;8.00;;;;;2.38;82.03;102189.16;5013255;28;45520;-75
2022/01/11 03:40:27;;;;;;;;;1.50;1.50;;;;;2.33;80.74;102195.94;4994096;28;46430;-75
2022/01/11 03:42:52;;;;;;;;;12.50;9.50;;;;;2.21;81.71;102191.09;5011443;28;45362;-75
2022/01/11 03:45:22;;;;;;;;;8.50;7.00;;;;;2.16;81.81;102190.91;5012717;27;45436;-76
2022/01/11 03:47:50;;;;;;;;;10.00;8.00;;;;;2.11;81.56;102185.53;5011162;28;45488;-75
2022/01/11 03:50:17;;;;;;;;;14.75;9.50;;;;;2.12;81.40;102189.00;5011575;28;46543;-74
2022/01/11 03:52:43;;;;;;;;;12.00;10.50;;;;;2.12;81.79;102191.63;5011664;28;45547;-75
2022/01/11 03:55:12;;;;;;;;;12.50;9.75;;;;;2.11;82.07;102190.72;5011727;28;45419;-75
2022/01/11 03:57:40;;;;;;;;;15.00;9.50;;;;;2.12;81.27;102191.63;5019080;28;45612;-76
2022/01/11 04:00:17;;;;;;;;;13.50;12.50;;;;;2.14;81.81;102210.81;5010016;27;45364;-75
2022/01/11 04:02:43;;;;;;;;;14.25;12.25;;;;;2.11;81.68;102208.09;5011287;28;45481;-75
2022/01/11 04:05:11;;;;;;;;;14.25;9.50;;;;;2.10;81.85;102203.72;5012170;28;45470;-74
2022/01/11 04:07:37;;;;;;;;;15.75;9.75;;;;;2.09;82.29;102191.50;5013568;28;45536;-75
2022/01/11 04:10:04;;;;;;;;;15.50;9.00;;;;;2.10;82.05;102191.56;5019976;27;45462;-77
2022/01/11 04:12:30;;;;;;;;;9.00;6.00;;;;;2.13;81.81;102198.63;5011075;27;45329;-76
2022/01/11 04:14:55;;;;;;;;;11.50;9.25;;;;;2.10;81.77;102195.88;5009972;28;45684;-73
2022/01/11 04:17:21;;;;;;;;;8.75;4.50;;;;;2.08;82.36;102189.69;5011885;27;45407;-74
2022/01/11 04:19:46;;;;;;;;;13.25;9.75;;;;;2.10;81.85;102191.56;5011527;28;46126;-75
2022/01/11 04:22:13;;;;;;;;;17.00;9.75;;;;;2.09;81.72;102192.38;5010775;28;45503;-75
2022/01/11 04:24:38;;;;;;;;;12.25;12.25;;;;;2.08;81.56;102189.69;5010834;28;45524;-75
2022/01/11 04:27:04;;;;;;;;;12.50;11.50;;;;;2.06;82.55;102192.25;5010447;28;45360;-75
2022/01/11 04:29:31;;;;;;;;;15.00;11.00;;;;;2.03;82.36;102197.34;5010921;28;45388;-75
2022/01/11 04:31:58;;;;;;;;;16.50;15.50;;;;;2.02;81.83;102195.59;5010937;28;45409;-75
2022/01/11 04:34:25;;;;;;;;;21.00;11.00;;;;;2.02;82.25;102198.19;4992891;28;45402;-75
2022/01/11 04:36:51;;;;;;;;;15.50;12.75;;;;;1.98;81.90;102201.50;5011467;27;45397;-76
2022/01/11 04:39:17;;;;;;;;;12.50;10.00;;;;;2.01;81.55;102203.34;5011586;28;45725;-73
2022/01/11 04:41:42;;;;;;;;;13.75;9.25;;;;;1.97;81.59;102196.22;5011636;28;46073;-75
2022/01/11 04:44:08;;;;;;;;;14.75;11.75;;;;;1.97;81.95;102201.44;5012773;27;45392;-75
2022/01/11 04:46:34;;;;;;;;;16.75;11.75;;;;;1.97;82.34;102204.91;4993482;28;45502;-75
2022/01/11 04:49:00;;;;;;;;;77.33;64.67;;;;;1.97;81.95;102196.22;5010297;27;46190;-73
2022/01/11 04:51:27;;;;;;;;;14.75;13.75;;;;;1.94;81.99;102196.97;5010467;28;45387;-76
2022/01/11 04:53:53;;;;;;;;;18.75;17.50;;;;;1.87;81.51;102201.06;5011153;28;45359;-76
2022/01/11 04:56:19;;;;;;;;;35.25;28.50;;;;;1.82;82.08;102201.69;5010278;28;45318;-75
2022/01/11 04:58:44;;;;;;;;;83.00;65.33;;;;;1.80;82.21;102204.22;5010877;28;45333;-75
2022/01/11 05:01:10;;;;;;;;;15.75;11.00;;;;;1.80;82.33;102214.66;5010359;28;45317;-75
2022/01/11 05:03:35;;;;;;;;;8.50;8.25;;;;;1.79;82.02;102220.69;5010399;28;45258;-76
2022/01/11 05:06:02;;;;;;;;;12.00;9.75;;;;;1.76;81.61;102223.16;5012540;28;45332;-76
2022/01/11 05:08:27;;;;;;;;;17.00;9.00;;;;;1.78;81.13;102231.97;4993377;28;46287;-75
2022/01/11 05:10:53;;;;;;;;;22.25;18.00;;;;;1.68;81.30;102217.63;5019158;27;45501;-75
2022/01/11 05:13:20;;;;;;;;;16.25;12.25;;;;;1.76;81.54;102233.59;5013593;28;45417;-73
2022/01/11 05:15:46;;;;;;;;;12.50;11.50;;;;;1.76;81.88;102234.50;4995693;28;45596;-75
2022/01/11 05:18:12;;;;;;;;;15.50;14.25;;;;;1.77;82.40;102231.06;5013479;28;45537;-75
2022/01/11 05:20:39;;;;;;;;;18.75;13.00;;;;;1.80;81.57;102230.31;5012449;28;45526;-75
2022/01/11 05:23:05;;;;;;;;;15.25;12.75;;;;;1.83;81.95;102220.00;5013506;28;45511;-75
2022/01/11 05:25:31;;;;;;;;;13.25;9.50;;;;;1.86;81.23;102230.56;5013477;28;45445;-75
2022/01/11 05:27:59;;;;;;;;;16.50;12.50;;;;;1.84;81.21;102228.69;5013567;28;45455;-75
2022/01/11 05:30:25;;;;;;;;;15.50;13.50;;;;;1.82;81.86;102235.56;5012873;28;45513;-75
2022/01/11 05:32:50;;;;;;;;;57.75;52.00;;;;;1.81;81.66;102233.78;5013248;28;45514;-76
2022/01/11 05:35:19;;;;;;;;;21.25;19.50;;;;;1.81;81.75;102239.00;5013575;28;45646;-75
2022/01/11 05:37:44;;;;;;;;;11.50;9.00;;;;;1.80;81.05;102232.91;5013814;28;46398;-75
2022/01/11 05:40:11;;;;;;;;;24.00;20.50;;;;;1.76;81.66;102237.13;4996707;28;45651;-74
2022/01/11 05:42:37;;;;;;;;;22.50;18.50;;;;;1.79;80.71;102236.34;5015043;28;45341;-74
2022/01/11 05:45:04;;;;;;;;;14.50;11.50;;;;;1.80;81.48;102237.25;5013610;28;45571;-76
2022/01/11 05:47:30;;;;;;;;;24.75;16.00;;;;;1.80;81.75;102240.72;5013121;28;45424;-76
2022/01/11 05:49:55;;;;;;;;;15.50;11.00;;;;;1.83;81.43;102255.63;5013488;28;45409;-75
2022/01/11 05:52:21;;;;;;;;;20.25;17.00;;;;;1.80;81.42;102251.16;5013115;27;45467;-75
2022/01/11 05:54:46;;;;;;;;;15.75;12.50;;;;;1.81;81.40;102247.75;5013255;28;45398;-76
2022/01/11 05:57:12;;;;;;;;;21.25;11.50;;;;;1.78;81.13;102247.59;5012472;28;45958;-76
2022/01/11 05:59:37;;;;;;;;;20.75;18.75;;;;;1.76;80.42;102244.94;5012796;28;45607;-76
2022/01/11 06:02:03;;;;;;;;;17.75;14.25;;;;;1.75;80.48;102247.47;5013387;28;45715;-75
2022/01/11 06:04:28;;;;;;;;;21.75;15.00;;;;;1.73;80.91;102254.31;5028721;27;45664;-76
2022/01/11 06:06:54;;;;;;;;;15.50;15.50;;;;;1.70;79.90;102264.63;5017513;28;45459;-76
2022/01/11 06:09:19;;;;;;;;;15.25;10.00;;;;;1.67;80.23;102262.78;5012989;28;45498;-75
2022/01/11 06:11:45;;;;;;;;;15.50;12.25;;;;;1.62;79.76;102272.09;5022997;27;45627;-75
2022/01/11 06:14:10;;;;;;;;;13.00;13.00;;;;;1.62;79.52;102279.94;5013387;28;45357;-76
2022/01/11 06:16:36;;;;;;;;;18.50;14.50;;;;;1.56;80.01;102283.19;4995033;28;48082;-76
2022/01/11 06:19:03;;;;;;;;;19.00;13.00;;;;;1.54;80.10;102297.84;4994855;28;45570;-75
2022/01/11 06:21:29;;;;;;;;;21.50;14.50;;;;;1.48;80.41;102289.75;5011539;28;45480;-76
2022/01/11 06:23:54;;;;;;;;;16.00;11.25;;;;;1.44;80.27;102293.03;5011754;27;45523;-75
2022/01/11 06:26:20;;;;;;;;;10.50;9.25;;;;;1.46;80.03;102291.41;5012363;28;46066;-76
2022/01/11 06:28:46;;;;;;;;;13.00;12.25;;;;;1.43;80.12;102296.50;5012515;28;45482;-75
2022/01/11 06:31:11;;;;;;;;;15.50;12.25;;;;;1.43;80.37;102291.28;5013199;28;45496;-75
2022/01/11 06:33:37;;;;;;;;;25.75;21.50;;;;;1.44;79.94;102293.03;5013030;28;45385;-76
2022/01/11 06:36:03;;;;;;;;;58.67;52.67;;;;;1.43;79.55;102293.88;5019835;28;45403;-76
2022/01/11 06:38:28;;;;;;;;;31.50;30.00;;;;;1.40;79.63;102293.75;5013856;27;45453;-76
2022/01/11 06:40:54;;;;;;;;;15.75;14.50;;;;;1.30;80.24;102278.50;5027246;28;45559;-76
2022/01/11 06:43:19;;;;;;;;;17.00;13.50;;;;;1.38;80.19;102292.75;5014722;28;45385;-76
2022/01/11 06:45:45;;;;;;;;;20.75;19.50;;;;;1.36;80.29;102294.41;5012825;28;46272;-75
2022/01/11 06:48:10;;;;;;;;;21.50;17.25;;;;;1.32;80.02;102300.31;5013472;28;45334;-76
2022/01/11 06:50:35;;;;;;;;;24.50;14.25;;;;;1.31;80.16;102311.56;5014329;28;45503;-76
2022/01/11 06:53:02;;;;;;;;;25.00;18.50;;;;;1.27;80.49;102309.63;5013676;28;45662;-76
2022/01/11 06:55:28;;;;;;;;;26.25;21.00;;;;;1.19;80.48;102301.47;5012362;28;45634;-76
2022/01/11 06:57:53;;;;;;;;;16.25;12.50;;;;;1.27;81.37;102304.44;5011696;28;45622;-75
2022/01/11 07:00:19;;;;;;;;;21.25;18.50;;;;;1.30;81.11;102300.25;4994884;28;45878;-77
2022/01/11 07:02:49;;;;;;;;;19.75;16.50;;;;;1.28;80.12;102304.50;5012408;28;45739;-76
2022/01/11 07:05:15;;;;;;;;;16.50;14.50;;;;;1.22;80.22;102297.28;5015220;28;46073;-75
2022/01/11 07:07:40;;;;;;;;;16.25;14.75;;;;;1.19;80.21;102298.88;5011974;28;45453;-76
2022/01/11 07:10:06;;;;;;;;;15.75;13.25;;;;;1.20;80.62;102304.16;5036552;27;45338;-75
2022/01/11 07:12:32;;;;;;;;;15.25;11.50;;;;;1.18;80.32;102300.56;5018689;27;45521;-79
2022/01/11 07:14:57;;;;;;;;;18.25;18.00;;;;;1.13;80.50;102314.22;5015824;28;45618;-76
2022/01/11 07:17:25;;;;;;;;;16.75;12.50;;;;;1.11;80.78;102327.19;5012184;28;45471;-76
2022/01/11 07:19:50;;;;;;;;;17.00;14.00;;;;;1.11;80.75;102329.78;5012117;28;45575;-76
2022/01/11 07:22:16;;;;;;;;;17.00;15.25;;;;;1.09;81.05;102325.31;5016000;28;45496;-76
2022/01/11 07:24:41;;;;;;;;;16.00;16.00;;;;;1.10;81.36;102325.38;5011823;28;46176;-76
2022/01/11 07:27:08;;;;;;;;;27.00;21.50;;;;;1.08;81.08;102316.63;5023391;28;45696;-76
2022/01/11 07:29:34;;;;;;;;;19.50;14.00;;;;;1.05;80.47;102303.44;5012206;28;45502;-77
2022/01/11 07:31:59;;;;;;;;;22.00;16.00;;;;;1.07;80.91;102327.84;5012125;28;45658;-76
2022/01/11 07:34:24;;;;;;;;;15.00;13.25;;;;;1.06;80.58;102346.88;5011576;28;45322;-76
2022/01/11 07:36:50;;;;;;;;;20.67;13.00;;;;;1.06;81.37;102341.66;5011173;28;45384;-76
2022/01/11 07:39:16;;;;;;;;;27.75;24.00;;;;;1.04;80.59;102361.56;5011701;28;45412;-77
2022/01/11 07:41:41;;;;;;;;;16.50;16.50;;;;;1.01;80.63;102369.22;5079976;27;45556;-76
2022/01/11 07:44:07;;;;;;;;;22.00;16.50;;;;;0.95;80.69;102368.94;5012313;28;46386;-76
2022/01/11 07:46:35;;;;;;;;;30.00;24.50;;;;;0.98;81.16;102371.69;5012557;28;45472;-75
2022/01/11 07:49:02;;;;;;;;;24.75;16.00;;;;;0.98;80.65;102369.09;5012293;28;45597;-76
2022/01/11 07:51:28;;;;;;;;;27.00;17.75;;;;;0.98;80.89;102369.09;5011832;27;45792;-75
2022/01/11 07:53:54;;;;;;;;;6.50;4.00;;;;;0.88;81.71;102340.00;5011666;28;46225;-76
2022/01/11 07:56:20;;;;;;;;;22.50;19.00;;;;;0.96;81.34;102355.09;5011132;27;45516;-75
2022/01/11 07:58:46;;;;;;;;;19.00;15.75;;;;;0.94;81.72;102368.06;5011064;28;45495;-76
2022/01/11 08:01:11;;;;;;;;;19.00;19.00;;;;;0.96;81.86;102375.94;5011517;28;45572;-76
2022/01/11 08:03:37;;;;;;;;;60.25;52.50;;;;;0.96;81.40;102370.72;5011870;28;45553;-78
2022/01/11 08:06:03;;;;;;;;;18.25;12.50;;;;;0.82;82.38;102346.59;4994078;28;45965;-80
2022/01/11 08:08:28;;;;;;;;;30.50;21.00;;;;;1.00;81.56;102372.63;5011832;28;45435;-76
2022/01/11 08:10:55;;;;;;;;;14.75;11.50;;;;;0.97;81.33;102368.19;5039874;27;45481;-77
2022/01/11 08:13:21;;;;;;;;;27.25;21.25;;;;;0.97;81.35;102372.50;5082967;27;46144;-73
2022/01/11 08:15:48;;;;;;;;;22.25;17.50;;;;;0.95;82.08;102379.34;5068304;27;45373;-77
2022/01/11 08:18:14;;;;;;;;;18.50;12.50;;;;;0.96;81.43;102375.94;5024066;28;45315;-75
2022/01/11 08:20:39;;;;;;;;;13.00;12.00;;;;;0.94;81.26;102377.56;5014067;28;45331;-76
2022/01/11 08:23:04;;;;;;;;;23.50;20.25;;;;;0.92;81.93;102392.22;5026890;28;46453;-75
2022/01/11 08:25:30;;;;;;;;;17.00;17.00;;;;;0.97;81.59;102393.31;5012089;28;45615;-76
2022/01/11 08:27:55;;;;;;;;;22.00;17.25;;;;;0.99;82.21;102402.13;4999175;28;45381;-75
2022/01/11 08:30:21;;;;;;;;;20.00;16.50;;;;;1.03;81.55;102410.16;5012730;28;45345;-74
2022/01/11 08:32:46;;;;;;;;;11.00;9.50;;;;;1.10;81.96;102411.34;5004985;28;46224;-75
2022/01/11 08:35:13;;;;;;;;;18.50;16.50;;;;;1.09;81.67;102404.34;5013272;28;45374;-74
2022/01/11 08:37:39;;;;;;;;;29.25;22.25;;;;;1.11;81.15;102412.22;5011732;28;45474;-75
2022/01/11 08:40:07;;;;;;;;;19.75;18.25;;;;;1.13;81.07;102415.81;4996200;28;45412;-75
2022/01/11 08:42:32;;;;;;;;;20.00;17.00;;;;;1.18;81.76;102412.59;5032963;27;45507;-77
2022/01/11 08:45:00;;;;;;;;;23.75;17.75;;;;;1.22;81.51;102411.03;5067485;27;45372;-75
2022/01/11 08:47:30;;;;;;;;;47.25;44.00;;;;;1.23;80.89;102410.19;5078627;27;45425;-77
2022/01/11 08:49:57;;;;;;;;;30.50;21.75;;;;;1.21;80.81;102404.91;5041649;27;45416;-76
2022/01/11 08:52:23;;;;;;;;;16.75;10.50;;;;;1.17;81.70;102396.88;5013448;28;45405;-75
2022/01/11 08:54:48;;;;;;;;;24.00;19.00;;;;;1.19;81.07;102395.25;5013843;28;45404;-75
2022/01/11 08:57:18;;;;;;;;;23.00;21.75;;;;;1.24;81.30;102405.09;5013261;27;45377;-77
2022/01/11 08:59:44;;;;;;;;;23.00;20.25;;;;;1.27;81.31;102398.22;5021115;27;45432;-76
2022/01/11 09:02:10;;;;;;;;;19.75;16.25;;;;;1.30;81.02;102409.66;5020343;28;46266;-76
2022/01/11 09:04:37;;;;;;;;;67.00;54.50;;;;;1.32;80.51;102409.75;5085680;27;45554;-76
2022/01/11 09:07:03;;;;;;;;;27.50;24.00;;;;;1.34;80.90;102418.56;5024438;28;45586;-76
2022/01/11 09:09:32;;;;;;;;;39.00;34.75;;;;;1.31;80.97;102415.81;5025208;28;45440;-76
2022/01/11 09:11:58;;;;;;;;;76.00;63.33;;;;;1.33;80.38;102421.97;5032307;27;46265;-77
2022/01/11 09:14:24;;;;;;;;;23.00;19.00;;;;;1.32;81.02;102422.78;5002335;28;45464;-76
2022/01/11 09:16:50;;;;;;;;;78.00;62.33;;;;;1.31;80.15;102424.50;5036578;28;45434;-75
